Bookmark and Share
Track history (hours):
 

Dru Lirette

More information available from US FCC via Universal Licensing System and Coast Guard Vessel Documentation Center.

Last reported at 2013-Aug-14 08:27 UTC. Time now 2014-Apr-23 19:06 UTC.
Position N 38°46' W 084°58'.
Warning: this ship's position is months out of date.

Length 46 m; draft 10 m.

Type: Towing. MMSI: 366985660.

NotesDate/timePositionNaut miles runAvg speedWind from/ knotsBaromVisibWave heightAir tempDewpointWater temp
2013-Aug-14 08:27N 38°46' W 084°58'4 0.9
2013-Aug-14 04:04N 38°47' W 084°53'3 6.2
2013-Aug-14 03:33N 38°47' W 084°49'6 5.7
2013-Aug-14 02:33N 38°53' W 084°47'5 5.0
2013-Aug-14 01:33N 38°56' W 084°52'6 5.7
2013-Aug-14 00:33N 39°02' W 084°52'5 4.9
2013-Aug-13 23:33N 39°06' W 084°50'5 5.4
2013-Aug-13 22:33N 39°08' W 084°43'3 2.6
2013-Aug-13 21:33N 39°06' W 084°41'0 0.0
2013-Aug-13 20:33N 39°06' W 084°41'5 5.0
2013-Aug-13 19:33N 39°05' W 084°35'7 6.7
2013-Aug-13 18:33N 39°06' W 084°26'7 7.4
2013-Aug-13 17:33N 39°01' W 084°19'9 8.8
2013-Aug-13 16:32N 38°53' W 084°14'  
2013-Aug-09 06:33N 38°39' W 083°22'23 5.4
2013-Aug-09 02:14N 38°45' W 083°51'5 7.1
2013-Aug-09 01:32N 38°47' W 083°57'6 6.4
2013-Aug-09 00:32N 38°46' W 084°05'5 4.4
2013-Aug-08 23:27N 38°48' W 084°11'3 3.6
2013-Aug-08 22:28N 38°50' W 084°14'5 5.6
2013-Aug-08 21:32N 38°55' W 084°16'5 5.3
2013-Aug-08 20:30N 39°00' W 084°18'5 5.3
2013-Aug-08 19:32N 39°03' W 084°24'5 5.3
2013-Aug-08 18:31N 39°07' W 084°28'4 3.8
2013-Aug-08 17:32N 39°06' W 084°32'2 1.8
2013-Aug-08 16:33N 39°05' W 084°34'5 5.2
2013-Aug-08 15:32N 39°06' W 084°41'5 4.8
2013-Aug-08 14:33N 39°08' W 084°46'4 4.5
2013-Aug-08 13:33N 39°05' W 084°51'4 4.3
2013-Aug-08 12:33N 39°01' W 084°51'6 6.0
2013-Aug-08 11:33N 38°55' W 084°53'5 5.3
2013-Aug-08 10:33N 38°51' W 084°48'  

Dump ship's entire track history

sailing weather and tide predictions

Dru Lirette — WDB9956 — position and weather